Jeffris, Wisconsin
Current Conditions -  °F | °C
As of 2:55 AM on Saturday 25 Oct 2014 (Local Time) from KRRL Reporting Station
Haze Haze  
Wind Chill: 53°   Ceiling: Unl
Heat Index: 53°   Visibility: 4mi
Dew Point: 52°   Wind: 8mph
Humidity: 98%   Direction: 270°W
Pressure: 29.83"   Gusts: NA
Location:  45.3595°N, 89.45°W
Report Text: KRRL 250755Z AUTO 27007KT 4SM BR CLR 11/11 A2983 RMK AO2 T01140111
Loading
Personal Weather Stations






























Interactive Weather Map
Tropical Storm Tracking
New forecast layout! Learn more

10-Day Weather Forecast

Advertisements
Track Severe Weather on mobile